Terminal Aerodrome Forecast
Issued by NWS Albany, NY

Home | Current Version | Previous Version | Text Only | Print | Product List | Glossary On
Versions: 1 2 3 4 5 6 7 8 9 10 11 12 13 14 15 16 17 18 19 20 21
000
FTUS41 KALY 221700 RRA
TAFGFL
TAF
KGFL 221744Z 2218/2318 16007KT P6SM FEW030 SCT035 BKN090
     FM230500 17003KT 3SM BR SCT090
     FM230700 18002KT 1SM BR SCT250
     FM231300 19007KT 6SM HZ FEW100 SCT250
     FM231500 20010KT P6SM BKN050=

USA.gov is the U.S. government's official web portal to all federal, state and local government web resources and services.